x

West Tampa - 112 Nm Wnw Of Tampa, Fl (42036) Wave Buoy

4:50pm - Sat 25th Oct 2014 All times are EDT. -4 hours from GMT.

  • Sig Wave height 1.3ft
  • Swell Direction
  • Peak Period 4s
  • Average Period 3s
  • Wind
    11mph, 16mph gusts
  • Sea Temp 80°f
  • Air Temp 73°f
  • Sea Pressure 1015.3mb
  • West Tampa  - 112 Nm Wnw Of Tampa, Fl
  • West Tampa  - 112 Nm Wnw Of Tampa, Fl

More Historic Weather Station data

Upgrade to MSW Pro to gain access to the past 30 days of data for over 8000 Wavebouys and Weather Stations around the globe.

Join Pro

Comparision Forecast

View Surf forecast
   
Sat 10/25 4:50pm 1.3ft 4s 3s 11 16 mph 1015.3mb 80f 73f
3:50pm 1.3ft 4s 3s 11 13 mph 1015.5mb 80f 73f
2:50pm 1.3ft 3s 3s 9 11 mph 1015.7mb 80f 73f
1:50pm 1.3ft 3s 3s 7 11 mph 1016.4mb 80f 73f
12:50pm 1.3ft 4s 3s 9 11 mph 1017.1mb 80f 73f
11:50am 1.3ft 4s 3s 9 11 mph 1017.5mb 80f 73f
10:50am 1.3ft 3s 3s 9 13 mph 1017.3mb 80f 73f
9:50am 1ft 3s 3s 9 11 mph 1017mb 80f 73f
8:50am 1ft 3s 3s 9 13 mph 1016.5mb 80f 73f
7:50am 1ft 3s 3s 7 11 mph 1016.1mb 80f 73f
6:50am 1ft 3s 3s 7 9 mph 1015.9mb 80f 73f
5:50am 1.3ft 3s 3s 11 16 mph 1015.7mb 80f 72f
4:50am 1.3ft 3s 3s 9 13 mph 1015.5mb 80f 72f
3:50am 1.3ft 3s 3s 11 13 mph 1015.4mb 80f 73f
2:50am 1.6ft 3s 3s 11 16 mph 1015.6mb 80f 73f
1:50am 1.6ft 4s 3s 11 16 mph 1015.8mb 80f 73f
12:50am 1.6ft 4s 3s 11 18 mph 1016mb 80f 74f
Fri 10/24 11:50pm 2ft 4s 4s 11 16 mph 1016.4mb 80f 73f
10:50pm 2.5ft 4s 4s 11 16 mph 1016.3mb 80f 73f
9:50pm 2.5ft 4s 4s 9 13 mph 1015.7mb 80f 72f
8:50pm 2.5ft 4s 4s 16 18 mph 1015.6mb 80f 72f
7:50pm 2.5ft 4s 4s 16 20 mph 1015.1mb 80f 72f
6:50pm 2.5ft 4s 4s 13 18 mph 1014.5mb 80f 71f
5:50pm 2.5ft 6s 4s 13 18 mph 1014.3mb 80f 71f
4:50pm 2.5ft 6s 4s 11 16 mph 1014.5mb 81f 71f
3:50pm 2.5ft 4s 4s 11 13 mph 1014.7mb 81f 71f
2:50pm 2.5ft 5s 4s 11 16 mph 1015.2mb 80f 71f
1:50pm 2.5ft 5s 4s 11 16 mph 1015.9mb 80f 71f
12:50pm 2.5ft 5s 4s 11 16 mph 1016.5mb 80f 72f
11:50am 2.5ft 5s 4s 13 18 mph 1017.2mb 80f 72f
10:50am 2.5ft 5s 4s 11 18 mph 1017.1mb 80f 73f
9:50am 2.5ft 5s 4s 11 13 mph 1016.7mb 80f 73f
8:50am 2.5ft 5s 4s 11 16 mph 1016mb 80f 73f
7:50am 2.5ft 5s 4s 11 13 mph 1015.3mb 81f 73f
6:50am 3ft 5s 4s 11 16 mph 1014.8mb 81f 73f
5:50am 3ft 5s 4s 11 16 mph 1014.6mb 80f 73f
4:50am 3ft 5s 4s 9 16 mph 1014.8mb 81f 73f
3:50am 3ft 4s 4s 11 13 mph 1015mb 80f 73f
2:50am 2.5ft 4s 4s 13 18 mph 1015.2mb 80f 73f
1:50am 2.5ft 4s 4s 16 20 mph 1015mb 81f 74f
12:50am 2.5ft 4s 4s 11 16 mph 1015.6mb 81f 74f
Thu 10/23 11:50pm 2.5ft 5s 4s 16 20 mph 1015.9mb 81f 75f
10:50pm 2.5ft 5s 4s 13 18 mph 1016.1mb 81f 74f
9:50pm 2.5ft 5s 4s 16 20 mph 1015.7mb 81f 74f
8:50pm 3ft 5s 4s 16 22 mph 1015.2mb 81f 73f
7:50pm 3.5ft 6s 4s 18 22 mph 1015.1mb 81f 73f
6:50pm 3.5ft 5s 4s 13 18 mph 1014.9mb 81f 73f
5:50pm 3.5ft 5s 4s 16 20 mph 1014.5mb 81f 73f
4:50pm 3.5ft 5s 5s 16 18 mph 1014.1mb 81f 72f
3:50pm 3.5ft 6s 4s 16 18 mph 1014.5mb 81f 72f
2:50pm 3.5ft 6s 4s 13 18 mph 1015.1mb 81f 71f
1:50pm 4ft 6s 5s 16 20 mph 1015.8mb 81f 71f
12:50pm 4ft 6s 5s 16 20 mph 1016.7mb 81f 71f
11:50am 4ft 6s 5s 16 20 mph 1017.4mb 81f 71f
10:50am 4ft 6s 5s 16 20 mph 1017.1mb 81f 71f
9:50am 4.5ft 6s 5s 16 20 mph 1016.8mb 81f 71f
8:50am 4.5ft 6s 5s 18 22 mph 1016mb 81f 71f
7:50am 4.5ft 6s 5s 18 25 mph 1015.8mb 81f 71f
6:50am 4.5ft 6s 4s 20 25 mph 1015.4mb 81f 71f
5:50am 4.5ft 5s 4s 20 27 mph 1015mb 81f 72f
4:50am 3.5ft 5s 4s 22 27 mph 1014.6mb 81f 72f
3:50am 3.5ft 4s 4s 20 22 mph 1014.5mb 81f 73f
2:50am 3.5ft 5s 4s 18 22 mph 1014.8mb 81f 74f
1:50am 3.5ft 5s 4s 18 22 mph 1014.9mb 81f 75f
12:50am 3ft 5s 4s 18 20 mph 1015.1mb 81f 76f
Wed 10/22 11:50pm 3ft 5s 4s 18 22 mph 1015.6mb 81f 76f
10:50pm 2.5ft 5s 4s 16 20 mph 1015.8mb 81f 76f
9:50pm 2.5ft 5s 4s 16 20 mph 1015.7mb 81f 75f
8:50pm 2.5ft 5s 4s 16 18 mph 1015.5mb 82f 75f
7:50pm 2.5ft 5s 4s 16 20 mph 1015mb 82f 74f
6:50pm 3ft 5s 4s 13 18 mph 1015mb 82f 74f
5:50pm 3ft 5s 4s 16 18 mph 1014.5mb 82f 74f
4:50pm 2.5ft 5s 4s 13 18 mph 1014.4mb 82f 74f
3:50pm 2.5ft 5s 4s 13 18 mph 1014.5mb 82f 75f
2:50pm 3ft 5s 4s 13 18 mph 1014.9mb 82f 75f
1:50pm 3ft 5s 4s 13 18 mph 1015.6mb 82f 75f
12:50pm 2.5ft 5s 4s 13 16 mph 1016.3mb 82f 76f
11:50am 2.5ft 4s 4s 13 16 mph 1016.6mb 82f 76f
10:50am 2.5ft 4s 4s 16 20 mph 1016.4mb 81f 76f
9:50am 2ft 4s 3s 16 20 mph 1016.1mb 81f 77f
8:50am 1.6ft 3s 3s 13 20 mph 1015.7mb 81f 77f
7:50am 1.3ft 3s 3s 13 18 mph 1015.1mb 81f 77f
6:50am 1ft 3s 3s 11 16 mph 1014.7mb 81f 76f
5:50am 1.3ft 3s 3s 11 13 mph 1014.4mb 81f 76f
4:50am 1.3ft 3s 3s 9 13 mph 1014.2mb 81f 76f
3:50am 1ft 3s 3s 11 16 mph 1014mb 81f 76f
2:50am 1ft 5s 3s 11 13 mph 1014.1mb 81f 76f
1:50am 1ft 3s 3s 13 16 mph 1014.3mb 81f 76f
12:50am 1ft 4s 4s 9 13 mph 1014.7mb 82f 76f
Tue 10/21 11:50pm 1ft 4s 4s 7 9 mph 1015.1mb 82f 76f
10:50pm 1.3ft 4s 4s 4 7 mph 1015.5mb 82f 76f